Time;durP1;ratioP1;P1;durP2;ratioP2;P2;SDS_P1;SDS_P2;PMS_P1;PMS_P2;Temp;Humidity;BMP_temperature;BMP_pressure;BME280_temperature;BME280_humidity;BME280_pressure;Samples;Min_cycle;Max_cycle;Signal;HPM_P1;HPM_P2
2022/01/26 00:06:44;;;;;;;49.85;26.50;;;0.30;99.90;;;-0.80;100.00;98579.34;5012865;28;20100;-90
2022/01/26 00:09:12;;;;;;;55.65;28.15;;;0.30;99.90;;;-0.68;100.00;98594.34;5008093;28;20033;-88
2022/01/26 00:11:39;;;;;;;50.70;26.40;;;0.30;99.90;;;-0.78;100.00;98581.97;5008092;28;20032;-89
2022/01/26 00:14:11;;;;;;;55.22;28.23;;;0.30;99.90;;;-0.75;100.00;98573.41;4988943;28;20390;-89
2022/01/26 00:16:41;;;;;;;52.45;26.67;;;0.30;99.90;;;-0.70;100.00;98579.59;4992767;28;20037;-90
2022/01/26 00:19:23;;;;;;;46.00;26.10;;;0.30;99.90;;;-1.01;100.00;98526.97;4990262;28;20594;-88
2022/01/26 00:21:55;;;;;;;48.75;25.77;;;0.30;99.90;;;-0.60;100.00;98599.72;5011138;28;20034;-89
2022/01/26 00:29:32;;;;;;;57.78;27.40;;;0.30;99.90;;;-0.56;100.00;98588.59;5013644;28;20099;-89
2022/01/26 00:40:38;;;;;;;57.53;27.27;;;0.20;99.90;;;-1.20;100.00;98541.13;5008271;28;20088;-88
2022/01/26 00:43:21;;;;;;;77.47;28.65;;;0.10;99.90;;;-0.93;100.00;98605.75;5004069;28;20034;-90
2022/01/26 00:45:49;;;;;;;72.57;28.13;;;0.10;99.90;;;-1.17;100.00;98570.59;4990572;28;20510;-88
2022/01/26 00:48:20;;;;;;;62.75;28.90;;;0.10;99.90;;;-1.11;100.00;98590.59;5008581;28;20038;-88
2022/01/26 00:50:50;;;;;;;57.78;29.10;;;0.00;99.90;;;-0.98;100.00;98604.75;5006423;28;20273;-90
2022/01/26 00:53:18;;;;;;;53.35;28.35;;;0.00;99.90;;;-1.12;100.00;98590.53;5007141;28;20030;-89
2022/01/26 00:55:44;;;;;;;54.75;26.83;;;0.00;99.90;;;-1.09;100.00;98601.84;4992299;28;20267;-89
2022/01/26 00:58:10;;;;;;;69.43;29.23;;;0.00;99.90;;;-1.40;100.00;98567.34;4999768;28;20028;-91
2022/01/26 01:00:35;;;;;;;63.40;27.92;;;-0.10;99.90;;;-1.26;100.00;98609.13;5029492;28;20045;-88
2022/01/26 01:03:02;;;;;;;61.60;27.38;;;-0.20;99.90;;;-1.44;100.00;98606.88;5009888;28;20069;-89
2022/01/26 01:05:40;;;;;;;57.42;27.35;;;-0.20;99.90;;;-1.52;100.00;98604.91;4992046;28;20015;-88
2022/01/26 01:08:11;;;;;;;50.83;25.17;;;-0.30;99.90;;;-1.52;100.00;98595.44;5015966;28;20135;-88
2022/01/26 01:10:39;;;;;;;45.65;23.80;;;-0.40;99.90;;;-1.49;100.00;98612.75;4991880;28;20027;-88
2022/01/26 01:13:07;;;;;;;47.72;23.20;;;-0.40;99.90;;;-1.77;100.00;98579.16;5010065;28;20034;-91
2022/01/26 01:15:33;;;;;;;44.88;23.70;;;-0.50;99.90;;;-1.89;100.00;98559.81;5008601;28;20349;-89
2022/01/26 01:18:09;;;;;;;47.03;23.85;;;-0.50;99.90;;;-1.80;100.00;98585.94;5009507;28;20036;-88
2022/01/26 01:20:54;;;;;;;46.63;24.27;;;-0.50;99.90;;;-2.02;100.00;98561.13;5011014;28;20029;-88
2022/01/26 01:34:04;;;;;;;41.85;22.02;;;-0.60;99.90;;;-2.00;100.00;98559.47;5006962;28;20044;-89
2022/01/26 01:36:29;;;;;;;45.13;22.63;;;-0.60;99.90;;;-1.69;100.00;98581.09;4993705;28;20026;-88
2022/01/26 01:38:55;;;;;;;45.90;22.52;;;-0.50;99.90;;;-1.91;100.00;98541.66;5006285;28;20568;-89
2022/01/26 01:41:21;;;;;;;40.92;22.50;;;-0.50;99.90;;;-1.68;100.00;98582.88;4990858;28;20360;-88
2022/01/26 01:43:47;;;;;;;43.15;22.10;;;-0.50;99.90;;;-1.52;100.00;98616.13;5008200;28;20029;-89
2022/01/26 01:46:13;;;;;;;42.95;21.95;;;-0.50;99.90;;;-1.77;100.00;98601.56;5008262;28;20498;-89
2022/01/26 01:48:39;;;;;;;38.72;21.08;;;-0.60;99.90;;;-1.94;100.00;98557.06;5005122;28;20034;-90
2022/01/26 01:51:09;;;;;;;41.10;20.80;;;-0.60;99.90;;;-1.96;100.00;98549.25;5005027;28;20029;-89
2022/01/26 01:53:43;;;;;;;38.60;20.52;;;-0.50;99.90;;;-1.63;100.00;98614.94;5008172;28;20017;-88
2022/01/26 01:56:13;;;;;;;41.25;21.50;;;-0.60;99.90;;;-1.95;100.00;98592.38;4990949;28;21115;-89
2022/01/26 01:58:40;;;;;;;35.83;19.77;;;-0.60;99.90;;;-2.10;100.00;98586.72;5009968;28;20065;-89
2022/01/26 02:01:07;;;;;;;43.58;23.02;;;-0.80;99.90;;;-2.44;100.00;98552.06;5009459;28;20120;-89
2022/01/26 02:03:33;;;;;;;45.53;20.98;;;-0.80;99.90;;;-2.20;100.00;98590.72;4990827;28;20083;-88
2022/01/26 02:05:59;;;;;;;41.95;21.88;;;-0.90;99.90;;;-2.41;100.00;98561.59;4990520;28;20042;-88
2022/01/26 02:08:25;;;;;;;48.08;21.60;;;-0.90;99.90;;;-2.21;100.00;98604.47;5004081;28;20026;-89
2022/01/26 02:10:51;;;;;;;40.60;20.98;;;-0.90;99.90;;;-2.56;100.00;98559.41;5003307;28;20034;-89
2022/01/26 02:13:28;;;;;;;37.70;20.00;;;-1.00;99.90;;;-2.15;100.00;98614.16;5006412;28;20506;-89
2022/01/26 02:21:17;;;;;;;39.67;20.85;;;-1.10;99.90;;;-2.29;100.00;98612.81;5008400;28;20045;-89
2022/01/26 02:51:38;;;;;;;34.28;18.27;;;-1.30;99.90;;;-2.86;100.00;98523.06;5001820;28;20371;-90
2022/01/26 03:02:04;;;;;;;37.20;17.55;;;-1.20;99.90;;;-2.40;100.00;98607.28;5003080;28;20034;-88
2022/01/26 03:04:46;;;;;;;29.88;15.70;;;-1.20;99.90;;;-2.61;100.00;98566.09;5006390;28;20274;-89
2022/01/26 03:07:19;;;;;;;39.10;18.92;;;-1.20;99.90;;;-2.58;100.00;98567.09;4991710;28;20526;-88
2022/01/26 03:09:58;;;;;;;43.42;16.58;;;-1.20;99.90;;;-2.42;100.00;98585.66;5009279;28;20184;-91
2022/01/26 03:12:33;;;;;;;29.60;16.15;;;-1.20;99.90;;;-2.36;100.00;98578.13;4992618;28;20022;-88
2022/01/26 03:15:08;;;;;;;29.98;15.80;;;-1.20;99.90;;;-2.42;100.00;98570.16;5005805;28;20392;-90
2022/01/26 03:20:33;;;;;;;34.45;17.63;;;-1.10;99.90;;;-2.39;100.00;98583.19;4960660;28;20545;-88
2022/01/26 03:28:41;;;;;;;34.28;17.23;;;-1.30;99.90;;;-2.60;100.00;98565.25;5004871;28;20418;-88
2022/01/26 03:36:21;;;;;;;33.97;16.17;;;-1.30;99.90;;;-2.61;100.00;98556.63;5006161;28;20033;-88
2022/01/26 03:38:58;;;;;;;39.30;18.23;;;-1.20;99.90;;;-2.45;100.00;98589.03;4985674;28;20384;-89
2022/01/26 03:44:06;;;;;;;37.88;18.63;;;-1.20;99.90;;;-2.27;100.00;98612.03;5003547;28;20037;-88
2022/01/26 03:46:32;;;;;;;38.67;18.50;;;-1.20;99.90;;;-2.88;100.00;98523.88;4985454;28;20036;-88
2022/01/26 03:48:58;;;;;;;41.45;18.75;;;-1.20;99.90;;;-2.39;100.00;98590.94;4986533;28;20125;-89
2022/01/26 03:51:24;;;;;;;37.38;17.30;;;-1.20;99.90;;;-2.57;100.00;98562.78;4986735;28;20473;-88
2022/01/26 03:53:50;;;;;;;42.20;18.38;;;-1.10;99.90;;;-2.25;100.00;98610.38;5001560;28;20027;-88
2022/01/26 03:56:16;;;;;;;36.13;17.45;;;-1.10;99.90;;;-2.23;100.00;98602.66;5005719;28;20550;-89
2022/01/26 03:58:42;;;;;;;30.65;16.00;;;-1.10;99.90;;;-2.21;100.00;98598.41;4987965;28;20029;-89
2022/01/26 04:01:08;;;;;;;41.85;18.75;;;-1.00;99.90;;;-2.53;100.00;98546.56;5005301;28;20033;-88
2022/01/26 04:03:33;;;;;;;35.35;17.83;;;-1.00;99.90;;;-2.09;100.00;98605.72;5003279;28;20034;-90
2022/01/26 04:05:59;;;;;;;42.17;19.17;;;-1.00;99.90;;;-2.48;100.00;98549.31;4988373;28;20062;-88
2022/01/26 04:08:29;;;;;;;35.45;16.58;;;-1.00;99.90;;;-2.31;100.00;98574.88;5000969;28;20058;-88
2022/01/26 04:11:24;;;;;;;38.90;18.30;;;-1.00;99.90;;;-2.00;100.00;98613.75;5005385;28;20026;-88
2022/01/26 04:13:50;;;;;;;34.50;16.73;;;-1.00;99.90;;;-2.19;100.00;98583.84;4991309;28;20026;-88
2022/01/26 04:16:17;;;;;;;35.38;17.75;;;-1.00;99.90;;;-2.07;100.00;98611.81;5003937;28;20088;-89
2022/01/26 04:18:43;;;;;;;39.60;17.70;;;-0.90;99.90;;;-2.01;100.00;98609.41;4987379;28;20036;-89
2022/01/26 04:21:38;;;;;;;37.47;16.92;;;-0.90;99.90;;;-1.90;100.00;98621.00;5002088;28;20038;-90
2022/01/26 04:27:08;;;;;;;34.55;17.70;;;-0.80;99.90;;;-2.00;100.00;98565.50;4992858;28;20661;-88
2022/01/26 04:29:35;;;;;;;39.85;18.48;;;-0.80;99.90;;;-1.77;100.00;98605.00;5003401;28;20038;-90
2022/01/26 04:32:04;;;;;;;42.58;18.55;;;-0.70;99.90;;;-2.02;100.00;98561.13;5002007;28;20461;-90
2022/01/26 04:34:32;;;;;;;40.25;18.38;;;-0.70;99.90;;;-1.93;100.00;98561.41;5008181;28;20076;-88
2022/01/26 04:40:11;;;;;;;40.25;17.90;;;-0.70;99.90;;;-1.99;100.00;98537.94;4971537;28;20244;-88
2022/01/26 04:45:08;;;;;;;43.63;20.45;;;-0.60;99.90;;;-1.76;100.00;98586.09;5007518;28;20038;-88
2022/01/26 04:47:33;;;;;;;45.20;19.63;;;-0.70;99.90;;;-1.76;100.00;98595.53;4987861;28;20053;-90
2022/01/26 04:50:00;;;;;;;62.15;21.38;;;-0.70;99.90;;;-2.36;100.00;98523.88;4985203;28;20725;-89
2022/01/26 04:52:25;;;;;;;43.20;19.70;;;-0.70;99.90;;;-2.03;100.00;98569.69;4983379;28;20032;-89
2022/01/26 04:54:52;;;;;;;50.92;20.45;;;-0.80;99.90;;;-2.09;100.00;98566.94;5004543;28;20038;-88
2022/01/26 04:57:18;;;;;;;46.03;20.13;;;-0.80;99.90;;;-2.35;100.00;98523.03;5001472;28;20064;-89
2022/01/26 04:59:44;;;;;;;38.22;18.20;;;-0.80;99.90;;;-1.93;100.00;98579.50;5003771;28;20034;-90
2022/01/26 05:02:10;;;;;;;41.78;18.08;;;-0.80;99.90;;;-1.81;100.00;98597.09;5006284;28;20040;-89
2022/01/26 05:04:35;;;;;;;42.70;18.85;;;-0.80;99.90;;;-1.98;100.00;98552.63;5003276;28;20136;-89
2022/01/26 05:07:01;;;;;;;48.28;21.02;;;-0.70;99.90;;;-1.84;100.00;98577.22;4987955;28;20388;-89
2022/01/26 05:09:27;;;;;;;41.33;18.05;;;-0.70;99.90;;;-1.92;100.00;98552.81;5008017;28;20188;-88
2022/01/26 05:11:54;;;;;;;41.42;18.77;;;-0.70;99.90;;;-1.95;100.00;98558.78;5002029;28;20045;-91
2022/01/26 05:14:20;;;;;;;45.08;19.25;;;-0.70;99.90;;;-1.72;100.00;98594.81;5003298;28;20045;-88
2022/01/26 05:16:47;;;;;;;38.33;17.95;;;-0.70;99.90;;;-1.85;100.00;98582.31;5000977;28;20108;-90
2022/01/26 05:19:12;;;;;;;46.63;20.08;;;-0.70;99.90;;;-1.89;100.00;98564.97;5004114;28;20022;-88
2022/01/26 05:21:38;;;;;;;42.88;18.55;;;-0.70;99.90;;;-1.63;100.00;98610.63;5002669;28;21558;-89
2022/01/26 05:24:05;;;;;;;40.28;18.90;;;-0.60;99.90;;;-1.63;100.00;98607.16;4996950;28;20105;-89
2022/01/26 05:26:31;;;;;;;39.80;18.83;;;-0.60;99.90;;;-1.73;100.00;98573.22;5003826;28;20030;-88
2022/01/26 05:28:56;;;;;;;47.10;19.83;;;-0.60;99.90;;;-1.77;100.00;98579.16;5002720;28;20281;-90
2022/01/26 05:31:22;;;;;;;47.75;19.52;;;-0.60;99.90;;;-1.97;100.00;98537.16;5000758;28;20448;-89
2022/01/26 05:33:50;;;;;;;48.05;19.75;;;-0.50;99.90;;;-1.58;100.00;98584.88;5000618;28;20402;-89
2022/01/26 05:36:16;;;;;;;45.88;19.60;;;-0.50;99.90;;;-1.74;100.00;98549.94;5019981;28;20530;-88
2022/01/26 05:38:41;;;;;;;47.00;20.08;;;-0.50;99.90;;;-1.73;100.00;98536.16;5000787;28;20034;-89
2022/01/26 05:41:09;;;;;;;49.90;21.45;;;-0.50;99.90;;;-1.66;100.00;98568.25;5000924;28;20483;-89
2022/01/26 05:43:35;;;;;;;48.53;20.52;;;-0.50;99.90;;;-1.67;100.00;98571.66;4983726;28;20225;-88
2022/01/26 05:46:07;;;;;;;51.72;20.38;;;-0.50;99.90;;;-1.70;100.00;98569.00;5007636;28;20715;-88
2022/01/26 05:48:35;;;;;;;48.80;21.98;;;-0.50;99.90;;;-1.51;100.00;98586.81;5007503;28;20034;-90
2022/01/26 05:51:06;;;;;;;44.20;20.25;;;-0.50;99.90;;;-1.56;100.00;98588.41;5010263;28;20123;-90
2022/01/26 05:53:35;;;;;;;55.17;21.35;;;-0.50;99.90;;;-1.62;100.00;98590.78;4995569;28;20034;-89
2022/01/26 05:56:02;;;;;;;55.60;21.80;;;-0.50;99.90;;;-1.59;100.00;98589.19;4994463;28;20041;-89
2022/01/26 05:58:28;;;;;;;54.30;21.73;;;-0.60;99.90;;;-1.69;100.00;98579.38;5008052;28;20033;-88
2022/01/26 06:00:58;;;;;;;50.35;21.73;;;-0.60;99.90;;;-1.79;100.00;98588.59;5001260;28;20427;-88
2022/01/26 06:03:24;;;;;;;44.47;20.23;;;-0.60;99.90;;;-1.68;100.00;98598.38;4996884;28;20095;-88
2022/01/26 06:05:54;;;;;;;50.53;21.38;;;-0.60;99.90;;;-1.90;100.00;98546.00;4999542;28;20041;-88
2022/01/26 06:08:24;;;;;;;51.50;20.92;;;-0.60;99.90;;;-1.60;100.00;98586.53;4981720;28;20376;-88
2022/01/26 06:10:51;;;;;;;53.83;21.25;;;-0.60;99.90;;;-1.56;100.00;98584.09;4999281;28;20030;-88
2022/01/26 06:13:17;;;;;;;45.35;19.15;;;-0.50;99.90;;;-1.52;100.00;98574.72;4996298;28;20386;-88
2022/01/26 06:15:43;;;;;;;51.67;20.92;;;-0.50;99.90;;;-1.48;100.00;98575.69;4997381;28;20041;-89
2022/01/26 06:18:10;;;;;;;43.13;18.83;;;-0.40;99.90;;;-1.49;100.00;98564.47;4984412;28;20037;-88
2022/01/26 06:20:37;;;;;;;45.83;20.58;;;-0.40;99.90;;;-1.44;100.00;98552.53;4983914;28;20030;-87
2022/01/26 06:23:03;;;;;;;43.15;20.52;;;-0.30;99.90;;;-1.20;100.00;98583.44;4983430;28;20431;-89
2022/01/26 06:25:30;;;;;;;51.33;21.08;;;-0.30;99.90;;;-1.60;100.00;98535.69;5000086;28;20069;-89
2022/01/26 06:27:58;;;;;;;52.40;21.05;;;-0.20;99.90;;;-1.45;100.00;98550.78;4998978;28;20026;-90
2022/01/26 06:30:24;;;;;;;47.55;20.52;;;-0.20;99.90;;;-1.29;100.00;98565.06;5001203;28;20065;-87
2022/01/26 06:32:50;;;;;;;52.88;21.17;;;-0.20;99.90;;;-1.46;100.00;98530.03;4981267;28;20116;-88
2022/01/26 06:35:17;;;;;;;57.63;23.48;;;-0.20;99.90;;;-1.30;100.00;98565.00;4978201;28;20157;-89
2022/01/26 06:37:44;;;;;;;52.00;19.92;;;-0.20;99.90;;;-1.13;100.00;98574.13;4997863;28;20038;-87
2022/01/26 06:40:10;;;;;;;48.38;20.50;;;-0.20;99.90;;;-1.21;100.00;98566.13;4991869;28;20169;-87
2022/01/26 06:43:01;;;;;;;49.85;20.55;;;-0.20;99.90;;;-1.48;100.00;98518.78;4994086;28;20034;-87
2022/01/26 06:45:26;;;;;;;47.53;20.23;;;-0.10;99.90;;;-1.24;100.00;98558.31;4992746;28;20045;-89
2022/01/26 06:50:28;;;;;;;50.70;21.98;;;-0.20;99.90;;;-1.18;100.00;98562.78;4999910;28;20050;-89
2022/01/26 06:52:53;;;;;;;56.03;22.23;;;-0.10;99.90;;;-1.08;100.00;98584.59;5001208;28;20080;-89
2022/01/26 06:55:20;;;;;;;46.22;20.40;;;-0.10;99.90;;;-1.18;100.00;98573.13;4998616;28;20136;-89
2022/01/26 06:57:46;;;;;;;49.55;20.98;;;-0.10;99.90;;;-1.59;100.00;98513.28;5002839;28;20030;-87
2022/01/26 07:00:14;;;;;;;48.50;20.88;;;-0.10;99.90;;;-1.60;100.00;98507.25;4981318;28;20038;-88
2022/01/26 07:02:40;;;;;;;50.33;21.00;;;-0.10;99.90;;;-1.24;100.00;98585.88;4999280;28;20574;-88
2022/01/26 07:05:08;;;;;;;43.22;20.73;;;-0.10;99.90;;;-1.23;100.00;98598.00;5000034;28;20037;-87
2022/01/26 07:07:34;;;;;;;46.90;20.05;;;-0.20;99.90;;;-1.34;100.00;98579.56;5002456;28;20044;-88
2022/01/26 07:10:00;;;;;;;57.15;22.75;;;-0.20;99.90;;;-1.76;100.00;98517.94;5006282;28;20030;-87
2022/01/26 07:12:26;;;;;;;46.97;20.23;;;-0.30;99.90;;;-1.44;100.00;98580.13;4996553;28;20052;-87
2022/01/26 07:22:52;;;;;;;43.50;20.23;;;-0.30;99.90;;;-1.31;100.00;98615.91;5022795;28;20033;-47
2022/01/26 07:25:17;;;;;;;44.30;20.02;;;-0.30;99.90;;;-1.37;100.00;98608.81;5025310;28;20530;-45
2022/01/26 07:27:43;;;;;;;53.55;19.98;;;-0.30;99.90;;;-1.40;100.00;98610.41;5025479;28;20041;-47
2022/01/26 07:30:09;;;;;;;43.53;20.45;;;-0.40;99.90;;;-1.44;100.00;98608.59;5026195;28;20200;-45
2022/01/26 07:32:37;;;;;;;48.22;20.45;;;-0.40;99.90;;;-1.43;100.00;98605.19;5024144;28;20032;-45
2022/01/26 07:35:04;;;;;;;47.75;20.73;;;-0.40;99.90;;;-1.45;100.00;98605.13;5027115;28;20037;-44
2022/01/26 07:37:31;;;;;;;50.65;21.42;;;-0.40;99.90;;;-1.39;100.00;98612.19;5025503;28;20040;-46
2022/01/26 07:40:06;;;;;;;45.70;19.60;;;-0.40;99.90;;;-1.47;100.00;98619.75;5026312;28;20509;-47
2022/01/26 07:42:33;;;;;;;47.80;20.27;;;-0.40;99.90;;;-1.49;100.00;98616.22;5031233;28;20427;-46
2022/01/26 07:45:00;;;;;;;46.40;19.92;;;-0.40;99.90;;;-1.53;100.00;98611.78;5028900;28;20056;-46
2022/01/26 07:47:27;;;;;;;47.80;20.83;;;-0.40;99.90;;;-1.49;100.00;98633.44;5024658;28;20037;-47
2022/01/26 07:49:55;;;;;;;44.05;20.42;;;-0.40;99.90;;;-1.43;100.00;98629.34;5023509;28;20114;-47
2022/01/26 07:52:23;;;;;;;42.80;19.55;;;-0.40;99.90;;;-1.36;100.00;98630.41;5025447;28;20033;-47
2022/01/26 07:54:51;;;;;;;45.03;20.30;;;-0.40;99.90;;;-1.49;100.00;98615.34;5026296;28;20028;-46
2022/01/26 07:57:18;;;;;;;43.15;19.88;;;-0.40;99.90;;;-1.26;100.00;98637.59;5025190;28;20090;-45
2022/01/26 07:59:44;;;;;;;46.13;19.42;;;-0.30;99.90;;;-1.29;100.00;98640.13;5025264;28;20560;-47
2022/01/26 08:02:10;;;;;;;50.58;19.20;;;-0.30;99.90;;;-1.36;100.00;98630.41;5026673;28;20056;-46
2022/01/26 08:04:36;;;;;;;48.28;20.35;;;-0.30;99.90;;;-1.33;100.00;98639.97;5024833;28;20280;-47
2022/01/26 08:07:01;;;;;;;47.17;21.30;;;-0.30;99.90;;;-1.37;100.00;98647.63;5026403;28;20639;-46
2022/01/26 08:09:27;;;;;;;44.15;20.00;;;-0.30;99.90;;;-1.30;100.00;98655.59;5009119;28;20037;-44
2022/01/26 08:11:53;;;;;;;49.47;20.67;;;-0.30;99.90;;;-1.31;100.00;98659.00;5000847;28;20040;-46
2022/01/26 08:14:19;;;;;;;53.83;20.80;;;-0.30;99.90;;;-1.31;100.00;98665.09;5026052;28;20040;-47
2022/01/26 08:16:45;;;;;;;52.00;21.80;;;-0.30;99.90;;;-1.34;100.00;98662.38;5028202;28;20418;-47
2022/01/26 08:19:12;;;;;;;43.35;19.63;;;-0.30;99.90;;;-1.30;100.00;98659.06;5029816;28;20056;-47
2022/01/26 08:21:39;;;;;;;51.38;21.30;;;-0.30;99.90;;;-1.30;100.00;98653.88;5029720;28;20028;-46
2022/01/26 08:24:13;;;;;;;49.63;20.65;;;-0.30;99.90;;;-1.35;100.00;98645.09;5027651;28;20028;-46
2022/01/26 08:26:44;;;;;;;44.90;19.08;;;-0.30;99.90;;;-1.24;100.00;98650.59;5028073;28;20021;-44
2022/01/26 08:29:26;;;;;;;47.70;19.85;;;-0.20;99.90;;;-1.16;100.00;98656.88;5032664;28;20098;-43
2022/01/26 08:31:52;;;;;;;46.85;20.50;;;-0.20;99.90;;;-1.01;100.00;98667.69;5030244;28;20029;-46
2022/01/26 08:34:18;;;;;;;50.03;20.27;;;-0.10;99.90;;;-1.02;100.00;98671.13;5031045;28;20059;-48
2022/01/26 08:36:44;;;;;;;41.53;19.30;;;-0.10;99.90;;;-1.04;100.00;98684.84;5029505;28;20502;-47
2022/01/26 08:39:10;;;;;;;45.90;19.67;;;0.00;99.90;;;-1.00;100.00;98679.81;5030280;28;20534;-46
2022/01/26 08:41:35;;;;;;;51.13;20.92;;;0.00;99.90;;;-1.00;100.00;98684.97;5032284;28;20215;-48
2022/01/26 08:44:01;;;;;;;51.53;21.80;;;0.00;99.90;;;-1.12;100.00;98665.63;5032261;28;20161;-49
2022/01/26 08:46:27;;;;;;;45.80;20.15;;;0.00;99.90;;;-1.03;100.00;98677.13;5028734;28;20068;-49
2022/01/26 08:48:53;;;;;;;51.47;21.60;;;0.00;99.90;;;-1.09;100.00;98674.34;5033152;28;20112;-48
2022/01/26 08:51:19;;;;;;;45.47;20.40;;;0.00;99.90;;;-0.95;100.00;98667.00;5032234;28;20358;-49
2022/01/26 08:53:45;;;;;;;45.78;20.25;;;0.00;99.90;;;-0.93;100.00;98669.59;5029383;28;20029;-50
2022/01/26 08:56:13;;;;;;;43.95;19.55;;;0.00;99.90;;;-0.87;100.00;98686.22;5031833;28;20041;-50
2022/01/26 08:58:38;;;;;;;51.33;20.60;;;0.10;99.90;;;-1.00;100.00;98678.94;5031014;28;20147;-47
2022/01/26 09:01:04;;;;;;;51.40;21.50;;;0.10;99.90;;;-0.97;100.00;98684.19;5036685;28;20047;-51
2022/01/26 09:03:34;;;;;;;48.22;21.00;;;0.10;99.90;;;-1.00;100.00;98664.28;5033619;28;20114;-46
2022/01/26 09:06:00;;;;;;;48.85;21.27;;;0.00;99.90;;;-1.03;100.00;98684.88;5031244;28;20036;-49
2022/01/26 09:08:26;;;;;;;48.65;21.42;;;0.00;99.90;;;-1.03;100.00;98678.84;5036019;28;20029;-49
2022/01/26 09:10:56;;;;;;;50.33;21.33;;;0.00;99.90;;;-1.08;100.00;98689.03;5034015;28;20032;-47
2022/01/26 09:13:22;;;;;;;49.58;21.48;;;0.00;99.90;;;-1.06;100.00;98687.41;5032195;28;20028;-49
2022/01/26 09:15:48;;;;;;;47.40;20.52;;;0.00;99.90;;;-1.03;100.00;98690.06;5027808;28;20411;-50
2022/01/26 09:18:19;;;;;;;43.75;20.05;;;0.00;99.90;;;-0.97;100.00;98695.44;5031683;28;20040;-49
2022/01/26 09:20:44;;;;;;;46.25;20.20;;;0.00;99.90;;;-0.84;100.00;98693.22;5026557;28;20048;-49
2022/01/26 09:23:10;;;;;;;47.70;21.52;;;0.10;99.90;;;-0.78;100.00;98701.16;5027482;28;20682;-50
2022/01/26 09:25:36;;;;;;;49.75;20.65;;;0.20;99.90;;;-0.69;100.00;98706.59;5027573;28;20434;-49
2022/01/26 09:28:02;;;;;;;54.10;21.00;;;0.30;99.90;;;-0.64;100.00;98688.59;5030992;28;20028;-49
2022/01/26 09:30:28;;;;;;;43.80;20.58;;;0.30;99.90;;;-0.52;100.00;98688.94;5027242;28;20474;-46
2022/01/26 09:32:54;;;;;;;49.17;20.67;;;0.40;99.90;;;-0.48;100.00;98690.78;5031742;28;20029;-50
2022/01/26 09:35:19;;;;;;;55.13;21.77;;;0.50;99.90;;;-0.46;100.00;98693.41;5026939;28;20415;-49
2022/01/26 09:37:45;;;;;;;47.25;20.33;;;0.50;99.90;;;-0.40;100.00;98686.66;5030762;28;20375;-50
2022/01/26 09:40:11;;;;;;;47.75;20.15;;;0.60;99.90;;;-0.28;100.00;98690.44;5027772;28;20032;-50
2022/01/26 09:42:37;;;;;;;45.97;19.98;;;0.70;99.90;;;-0.21;100.00;98684.59;5028370;28;20036;-47
2022/01/26 09:45:07;;;;;;;47.55;20.50;;;0.70;99.90;;;-0.15;100.00;98669.16;5030899;28;20044;-50
2022/01/26 09:47:33;;;;;;;48.92;20.70;;;0.80;99.90;;;-0.20;100.00;98665.56;5009253;28;20024;-48
2022/01/26 09:49:58;;;;;;;48.85;21.65;;;0.80;99.90;;;-0.26;100.00;98674.06;5028950;28;20286;-49
2022/01/26 09:52:33;;;;;;;47.88;19.75;;;0.70;99.90;;;-0.34;100.00;98643.59;5030899;28;20398;-50
2022/01/26 09:55:00;;;;;;;52.28;21.02;;;0.70;99.90;;;-0.28;100.00;98633.41;5030157;28;20406;-46
2022/01/26 09:57:28;;;;;;;42.88;20.25;;;0.70;99.90;;;-0.18;100.00;98650.94;5028780;28;20505;-47
2022/01/26 09:59:54;;;;;;;55.45;22.17;;;0.80;99.90;;;-0.19;100.00;98651.78;5028131;28;20372;-43
2022/01/26 10:02:31;;;;;;;45.53;20.90;;;0.80;99.90;;;-0.13;100.00;98654.53;5025608;28;20040;-45
2022/01/26 10:05:06;;;;;;;49.97;20.25;;;0.80;99.90;;;-0.04;100.00;98659.94;5027773;28;20123;-47
2022/01/26 10:18:00;;;;;;;44.80;20.75;;;1.00;99.90;;;0.08;100.00;98640.34;5027443;28;20040;-49
2022/01/26 10:20:26;;;;;;;47.30;20.27;;;1.00;99.90;;;0.02;100.00;98640.19;5026603;28;20130;-44
2022/01/26 10:22:52;;;;;;;44.85;20.40;;;1.00;99.90;;;0.06;100.00;98622.16;5026622;28;20156;-47
2022/01/26 10:25:20;;;;;;;40.15;18.75;;;1.00;99.90;;;0.12;100.00;98619.69;5026230;28;20102;-47
2022/01/26 10:27:50;;;;;;;42.10;19.50;;;1.00;99.90;;;0.26;100.00;98629.53;5025664;28;20033;-46
2022/01/26 10:30:19;;;;;;;40.08;18.98;;;1.10;99.90;;;0.29;100.00;98620.13;5021654;28;20649;-45
2022/01/26 10:32:46;;;;;;;41.22;18.55;;;1.20;99.90;;;0.37;100.00;98636.72;5025570;28;20033;-47
2022/01/26 10:35:14;;;;;;;42.47;19.60;;;1.30;99.90;;;0.53;100.00;98637.94;5024251;28;20029;-48
2022/01/26 10:37:58;;;;;;;37.13;19.58;;;1.40;99.90;;;0.60;100.00;98619.94;5024194;28;20412;-48
2022/01/26 10:40:27;;;;;;;44.65;19.17;;;1.50;99.90;;;0.61;100.00;98612.19;5025525;28;20123;-48
2022/01/26 10:43:09;;;;;;;45.85;19.90;;;1.50;99.90;;;0.49;100.00;98623.16;5028224;28;20095;-48
2022/01/26 10:45:47;;;;;;;;;;;1.50;99.90;;;0.44;100.00;98622.19;5023115;28;20033;-43
2022/01/26 10:48:30;;;;;;;39.97;18.85;;;1.50;99.90;;;0.53;100.00;98632.75;5031186;28;20359;-47
2022/01/26 10:53:56;;;;;;;42.20;19.00;;;1.50;99.90;;;0.40;100.00;98654.09;5031075;28;20041;-46
2022/01/26 10:56:22;;;;;;;48.35;21.25;;;1.40;99.90;;;0.42;100.00;98654.16;5026744;28;20490;-47
2022/01/26 10:58:47;;;;;;;41.13;19.77;;;1.40;99.90;;;0.50;100.00;98656.09;5026589;28;20040;-45
2022/01/26 11:01:13;;;;;;;43.35;19.42;;;1.40;99.90;;;0.57;100.00;98673.56;5028605;28;20683;-47
2022/01/26 11:03:39;;;;;;;45.10;19.42;;;1.40;99.90;;;0.60;100.00;98674.47;5025441;28;20120;-48
2022/01/26 11:06:07;;;;;;;42.90;19.65;;;1.50;99.90;;;0.70;100.00;98677.31;5022199;28;20785;-47
2022/01/26 11:08:39;;;;;;;42.92;19.90;;;1.50;99.90;;;0.57;100.00;98677.84;5032487;28;20442;-44
2022/01/26 11:11:05;;;;;;;;;;;1.50;99.90;;;0.46;100.00;98661.16;5024964;28;20087;-46
2022/01/26 11:13:36;;;;;;;43.58;18.83;;;1.40;99.90;;;0.29;100.00;98671.16;5027546;28;20011;-44
2022/01/26 11:16:08;;;;;;;48.78;19.83;;;1.40;99.90;;;0.23;100.00;98682.22;5025904;28;20053;-47
2022/01/26 11:18:48;;;;;;;49.03;20.57;;;1.30;99.90;;;0.17;100.00;98682.94;5024670;28;20398;-44
2022/01/26 11:21:37;;;;;;;46.00;19.60;;;1.20;99.90;;;0.28;100.00;98683.22;5023727;28;20028;-46
2022/01/26 11:24:18;;;;;;;50.22;20.98;;;1.20;99.90;;;0.05;100.00;98687.84;5026242;28;20044;-46
2022/01/26 11:26:45;;;;;;;46.28;20.58;;;1.10;99.90;;;0.03;100.00;98676.53;5024624;28;20171;-47
2022/01/26 11:29:31;;;;;;;48.22;21.63;;;1.10;99.90;;;-0.07;100.00;98662.47;5030411;28;20037;-47
2022/01/26 11:32:22;;;;;;;51.88;22.73;;;1.00;99.90;;;-0.16;100.00;98659.66;5021380;28;20429;-48
2022/01/26 11:34:52;;;;;;;50.00;22.33;;;0.90;99.90;;;-0.13;100.00;98656.25;5027026;28;20425;-45
2022/01/26 11:37:43;;;;;;;41.63;21.02;;;0.80;99.90;;;-0.04;100.00;98657.34;5029104;28;20036;-47
2022/01/26 11:45:27;;;;;;;50.97;21.88;;;0.80;99.90;;;-0.37;100.00;98651.31;5025861;28;20737;-46
2022/01/26 11:48:22;;;;;;;43.58;19.77;;;0.80;99.90;;;-0.27;100.00;98654.19;5024585;28;20033;-46
2022/01/26 11:50:59;;;;;;;40.28;18.48;;;0.70;99.90;;;-0.23;100.00;98666.38;5021459;28;20098;-47
2022/01/26 11:53:27;;;;;;;46.60;19.60;;;0.70;99.90;;;-0.23;100.00;98650.84;5026181;28;20032;-47
2022/01/26 11:56:05;;;;;;;39.90;19.60;;;0.70;99.90;;;-0.23;100.00;98640.47;5025118;28;20045;-48
2022/01/26 11:58:43;;;;;;;39.17;17.67;;;0.70;99.90;;;-0.26;100.00;98655.06;5024372;28;20522;-48
2022/01/26 12:01:24;;;;;;;41.00;17.98;;;0.70;99.90;;;-0.18;100.00;98652.66;5020881;28;20037;-46
2022/01/26 12:04:08;;;;;;;40.42;18.77;;;0.70;99.90;;;-0.22;100.00;98647.38;5026282;28;21197;-46
2022/01/26 12:06:42;;;;;;;40.53;18.13;;;0.80;99.90;;;-0.34;100.00;98641.00;5022280;28;20041;-47
2022/01/26 12:09:09;;;;;;;46.15;19.55;;;0.70;99.90;;;-0.35;100.00;98642.72;5007145;28;20520;-48
2022/01/26 12:11:36;;;;;;;41.08;18.13;;;0.60;99.90;;;-0.22;100.00;98639.59;5030538;28;20021;-48
2022/01/26 12:14:12;;;;;;;43.72;19.38;;;0.70;99.90;;;-0.30;100.00;98635.09;5026683;28;20403;-49
2022/01/26 12:16:46;;;;;;;36.53;17.45;;;0.70;99.90;;;-0.36;100.00;98624.53;5028216;28;20482;-45